sensor_id;sensor_type;location;lat;lon;timestamp;P1;durP1;ratioP1;P2;durP2;ratioP2
37657;SDS011;23500;53.268;8.308;2023-07-13T00:00:03;2.90;;;2.60;;
37657;SDS011;23500;53.268;8.308;2023-07-13T00:02:34;2.65;;;2.40;;
37657;SDS011;23500;53.268;8.308;2023-07-13T00:05:00;4.20;;;2.80;;
37657;SDS011;23500;53.268;8.308;2023-07-13T00:07:25;2.28;;;2.08;;
37657;SDS011;23500;53.268;8.308;2023-07-13T00:09:51;2.67;;;2.47;;
37657;SDS011;23500;53.268;8.308;2023-07-13T00:12:30;2.67;;;2.25;;
37657;SDS011;23500;53.268;8.308;2023-07-13T00:14:58;2.80;;;2.45;;
37657;SDS011;23500;53.268;8.308;2023-07-13T00:17:26;2.72;;;2.53;;
37657;SDS011;23500;53.268;8.308;2023-07-13T00:19:53;2.80;;;2.55;;
37657;SDS011;23500;53.268;8.308;2023-07-13T00:22:20;2.42;;;2.20;;
37657;SDS011;23500;53.268;8.308;2023-07-13T00:24:49;2.83;;;2.63;;
37657;SDS011;23500;53.268;8.308;2023-07-13T00:27:16;2.75;;;2.47;;
37657;SDS011;23500;53.268;8.308;2023-07-13T00:29:42;2.67;;;2.30;;
37657;SDS011;23500;53.268;8.308;2023-07-13T00:32:08;2.85;;;2.63;;
37657;SDS011;23500;53.268;8.308;2023-07-13T00:34:36;2.30;;;2.10;;
37657;SDS011;23500;53.268;8.308;2023-07-13T00:37:02;2.85;;;2.30;;
37657;SDS011;23500;53.268;8.308;2023-07-13T00:39:31;2.58;;;2.38;;
37657;SDS011;23500;53.268;8.308;2023-07-13T00:41:58;2.47;;;2.22;;
37657;SDS011;23500;53.268;8.308;2023-07-13T00:44:24;2.60;;;2.38;;
37657;SDS011;23500;53.268;8.308;2023-07-13T00:46:50;2.20;;;2.10;;
37657;SDS011;23500;53.268;8.308;2023-07-13T00:49:18;2.53;;;2.33;;
37657;SDS011;23500;53.268;8.308;2023-07-13T00:51:49;2.33;;;2.13;;
37657;SDS011;23500;53.268;8.308;2023-07-13T00:54:26;2.50;;;2.33;;
37657;SDS011;23500;53.268;8.308;2023-07-13T00:56:56;4.03;;;2.33;;
37657;SDS011;23500;53.268;8.308;2023-07-13T00:59:24;2.45;;;2.20;;
37657;SDS011;23500;53.268;8.308;2023-07-13T01:01:50;2.35;;;2.15;;
37657;SDS011;23500;53.268;8.308;2023-07-13T01:04:16;2.28;;;2.17;;
37657;SDS011;23500;53.268;8.308;2023-07-13T01:06:43;2.88;;;2.58;;
37657;SDS011;23500;53.268;8.308;2023-07-13T01:09:09;2.67;;;2.47;;
37657;SDS011;23500;53.268;8.308;2023-07-13T01:11:35;2.50;;;2.25;;
37657;SDS011;23500;53.268;8.308;2023-07-13T01:14:02;2.38;;;2.17;;
37657;SDS011;23500;53.268;8.308;2023-07-13T01:16:30;2.30;;;2.10;;
37657;SDS011;23500;53.268;8.308;2023-07-13T01:18:57;2.50;;;2.30;;
37657;SDS011;23500;53.268;8.308;2023-07-13T01:21:24;2.63;;;2.40;;
37657;SDS011;23500;53.268;8.308;2023-07-13T01:23:50;2.38;;;2.17;;
37657;SDS011;23500;53.268;8.308;2023-07-13T01:26:16;2.53;;;2.33;;
37657;SDS011;23500;53.268;8.308;2023-07-13T01:28:42;2.63;;;2.42;;
37657;SDS011;23500;53.268;8.308;2023-07-13T01:31:08;2.50;;;2.30;;
37657;SDS011;23500;53.268;8.308;2023-07-13T01:33:36;2.33;;;2.13;;
37657;SDS011;23500;53.268;8.308;2023-07-13T01:36:02;2.40;;;2.20;;
37657;SDS011;23500;53.268;8.308;2023-07-13T01:38:28;2.50;;;2.30;;
37657;SDS011;23500;53.268;8.308;2023-07-13T01:40:54;2.30;;;2.10;;
37657;SDS011;23500;53.268;8.308;2023-07-13T01:43:20;2.45;;;2.10;;
37657;SDS011;23500;53.268;8.308;2023-07-13T01:45:46;2.50;;;2.03;;
37657;SDS011;23500;53.268;8.308;2023-07-13T01:48:12;2.53;;;2.33;;
37657;SDS011;23500;53.268;8.308;2023-07-13T01:50:38;2.35;;;2.15;;
37657;SDS011;23500;53.268;8.308;2023-07-13T01:53:05;3.13;;;2.42;;
37657;SDS011;23500;53.268;8.308;2023-07-13T01:55:31;2.38;;;2.10;;
37657;SDS011;23500;53.268;8.308;2023-07-13T01:57:57;1.98;;;1.88;;
37657;SDS011;23500;53.268;8.308;2023-07-13T02:00:23;2.50;;;2.30;;
37657;SDS011;23500;53.268;8.308;2023-07-13T02:02:49;2.28;;;2.08;;
37657;SDS011;23500;53.268;8.308;2023-07-13T02:05:15;2.55;;;2.08;;
37657;SDS011;23500;53.268;8.308;2023-07-13T02:07:41;2.42;;;2.22;;
37657;SDS011;23500;53.268;8.308;2023-07-13T02:10:08;2.55;;;2.35;;
37657;SDS011;23500;53.268;8.308;2023-07-13T02:12:34;2.40;;;2.20;;
37657;SDS011;23500;53.268;8.308;2023-07-13T02:15:00;2.75;;;2.05;;
37657;SDS011;23500;53.268;8.308;2023-07-13T02:17:27;2.10;;;2.00;;
37657;SDS011;23500;53.268;8.308;2023-07-13T02:19:53;2.28;;;2.10;;
37657;SDS011;23500;53.268;8.308;2023-07-13T02:22:19;2.00;;;1.90;;
37657;SDS011;23500;53.268;8.308;2023-07-13T02:24:44;2.50;;;2.30;;
37657;SDS011;23500;53.268;8.308;2023-07-13T02:27:10;2.60;;;2.40;;
37657;SDS011;23500;53.268;8.308;2023-07-13T02:29:36;2.40;;;2.20;;
37657;SDS011;23500;53.268;8.308;2023-07-13T02:32:01;2.40;;;2.20;;
37657;SDS011;23500;53.268;8.308;2023-07-13T02:34:27;2.25;;;2.05;;
37657;SDS011;23500;53.268;8.308;2023-07-13T02:36:53;2.40;;;2.20;;
37657;SDS011;23500;53.268;8.308;2023-07-13T02:39:19;3.05;;;2.35;;
37657;SDS011;23500;53.268;8.308;2023-07-13T02:41:44;2.55;;;2.35;;
37657;SDS011;23500;53.268;8.308;2023-07-13T02:44:12;2.03;;;1.83;;
37657;SDS011;23500;53.268;8.308;2023-07-13T02:46:38;2.20;;;2.10;;
37657;SDS011;23500;53.268;8.308;2023-07-13T02:49:05;2.30;;;2.10;;
37657;SDS011;23500;53.268;8.308;2023-07-13T02:51:31;2.30;;;2.10;;
37657;SDS011;23500;53.268;8.308;2023-07-13T02:54:01;2.00;;;1.85;;
37657;SDS011;23500;53.268;8.308;2023-07-13T02:56:28;2.55;;;2.35;;
37657;SDS011;23500;53.268;8.308;2023-07-13T02:58:55;2.20;;;1.90;;
37657;SDS011;23500;53.268;8.308;2023-07-13T03:01:21;3.33;;;2.33;;
37657;SDS011;23500;53.268;8.308;2023-07-13T03:03:48;2.80;;;2.38;;
37657;SDS011;23500;53.268;8.308;2023-07-13T03:06:14;2.40;;;2.20;;
37657;SDS011;23500;53.268;8.308;2023-07-13T03:08:41;2.55;;;2.15;;
37657;SDS011;23500;53.268;8.308;2023-07-13T03:11:09;2.50;;;2.30;;
37657;SDS011;23500;53.268;8.308;2023-07-13T03:13:37;2.28;;;2.08;;
37657;SDS011;23500;53.268;8.308;2023-07-13T03:16:04;4.38;;;2.30;;
37657;SDS011;23500;53.268;8.308;2023-07-13T03:18:31;2.65;;;2.40;;
37657;SDS011;23500;53.268;8.308;2023-07-13T03:20:56;2.20;;;1.92;;
37657;SDS011;23500;53.268;8.308;2023-07-13T03:23:22;2.20;;;2.10;;
37657;SDS011;23500;53.268;8.308;2023-07-13T03:25:49;2.35;;;2.15;;
37657;SDS011;23500;53.268;8.308;2023-07-13T03:28:16;2.50;;;2.30;;
37657;SDS011;23500;53.268;8.308;2023-07-13T03:30:42;2.13;;;2.00;;
37657;SDS011;23500;53.268;8.308;2023-07-13T03:33:07;2.40;;;2.20;;
37657;SDS011;23500;53.268;8.308;2023-07-13T03:35:34;2.47;;;2.05;;
37657;SDS011;23500;53.268;8.308;2023-07-13T03:38:00;2.40;;;2.20;;
37657;SDS011;23500;53.268;8.308;2023-07-13T03:40:27;2.25;;;2.05;;
37657;SDS011;23500;53.268;8.308;2023-07-13T03:42:53;2.15;;;1.95;;
37657;SDS011;23500;53.268;8.308;2023-07-13T03:45:19;2.10;;;1.88;;
37657;SDS011;23500;53.268;8.308;2023-07-13T03:47:44;2.58;;;2.38;;
37657;SDS011;23500;53.268;8.308;2023-07-13T03:50:10;3.97;;;2.50;;
37657;SDS011;23500;53.268;8.308;2023-07-13T03:52:36;2.10;;;2.00;;
37657;SDS011;23500;53.268;8.308;2023-07-13T03:55:02;2.50;;;2.30;;
37657;SDS011;23500;53.268;8.308;2023-07-13T03:57:28;2.60;;;2.20;;
37657;SDS011;23500;53.268;8.308;2023-07-13T03:59:54;2.22;;;2.03;;
37657;SDS011;23500;53.268;8.308;2023-07-13T04:02:20;2.90;;;2.10;;
37657;SDS011;23500;53.268;8.308;2023-07-13T04:04:45;2.35;;;2.15;;
37657;SDS011;23500;53.268;8.308;2023-07-13T04:07:11;2.25;;;2.05;;
37657;SDS011;23500;53.268;8.308;2023-07-13T04:09:37;2.05;;;1.90;;
37657;SDS011;23500;53.268;8.308;2023-07-13T04:12:03;2.53;;;2.00;;
37657;SDS011;23500;53.268;8.308;2023-07-13T04:14:29;2.28;;;2.00;;
37657;SDS011;23500;53.268;8.308;2023-07-13T04:16:55;2.03;;;1.90;;
37657;SDS011;23500;53.268;8.308;2023-07-13T04:19:21;2.20;;;2.05;;
37657;SDS011;23500;53.268;8.308;2023-07-13T04:21:47;2.15;;;2.00;;
37657;SDS011;23500;53.268;8.308;2023-07-13T04:24:13;2.13;;;1.92;;
37657;SDS011;23500;53.268;8.308;2023-07-13T04:26:38;2.50;;;1.90;;
37657;SDS011;23500;53.268;8.308;2023-07-13T04:29:05;2.47;;;2.08;;
37657;SDS011;23500;53.268;8.308;2023-07-13T04:31:31;2.13;;;1.92;;
37657;SDS011;23500;53.268;8.308;2023-07-13T04:33:57;4.53;;;2.10;;
37657;SDS011;23500;53.268;8.308;2023-07-13T04:36:23;2.15;;;1.95;;
37657;SDS011;23500;53.268;8.308;2023-07-13T04:38:52;4.47;;;2.55;;
37657;SDS011;23500;53.268;8.308;2023-07-13T04:41:19;11.18;;;3.88;;
37657;SDS011;23500;53.268;8.308;2023-07-13T04:43:45;18.30;;;4.82;;
37657;SDS011;23500;53.268;8.308;2023-07-13T04:46:12;25.83;;;6.90;;
37657;SDS011;23500;53.268;8.308;2023-07-13T04:48:39;38.75;;;9.32;;
37657;SDS011;23500;53.268;8.308;2023-07-13T04:51:05;47.60;;;12.90;;
37657;SDS011;23500;53.268;8.308;2023-07-13T04:53:32;64.72;;;13.52;;
37657;SDS011;23500;53.268;8.308;2023-07-13T04:55:59;71.38;;;16.33;;
37657;SDS011;23500;53.268;8.308;2023-07-13T04:58:25;65.07;;;15.52;;
37657;SDS011;23500;53.268;8.308;2023-07-13T05:00:52;61.83;;;16.73;;
37657;SDS011;23500;53.268;8.308;2023-07-13T05:03:18;72.47;;;17.23;;
37657;SDS011;23500;53.268;8.308;2023-07-13T05:05:53;64.65;;;16.52;;
37657;SDS011;23500;53.268;8.308;2023-07-13T05:08:23;71.80;;;17.50;;
37657;SDS011;23500;53.268;8.308;2023-07-13T05:10:49;61.72;;;17.15;;
37657;SDS011;23500;53.268;8.308;2023-07-13T05:13:16;56.75;;;16.42;;
37657;SDS011;23500;53.268;8.308;2023-07-13T05:15:41;27.25;;;9.25;;
37657;SDS011;23500;53.268;8.308;2023-07-13T05:18:07;26.33;;;6.93;;
37657;SDS011;23500;53.268;8.308;2023-07-13T05:20:33;22.63;;;6.82;;
37657;SDS011;23500;53.268;8.308;2023-07-13T05:22:58;26.65;;;7.65;;
37657;SDS011;23500;53.268;8.308;2023-07-13T05:25:24;30.65;;;8.45;;
37657;SDS011;23500;53.268;8.308;2023-07-13T05:27:50;27.70;;;7.90;;
37657;SDS011;23500;53.268;8.308;2023-07-13T05:30:15;32.95;;;9.45;;
37657;SDS011;23500;53.268;8.308;2023-07-13T05:32:41;30.60;;;9.57;;
37657;SDS011;23500;53.268;8.308;2023-07-13T05:35:07;31.98;;;9.88;;
37657;SDS011;23500;53.268;8.308;2023-07-13T05:37:33;24.73;;;8.52;;
37657;SDS011;23500;53.268;8.308;2023-07-13T05:39:59;27.38;;;8.32;;
37657;SDS011;23500;53.268;8.308;2023-07-13T05:42:25;29.00;;;8.38;;
37657;SDS011;23500;53.268;8.308;2023-07-13T05:44:51;34.13;;;8.70;;
37657;SDS011;23500;53.268;8.308;2023-07-13T05:47:16;26.30;;;8.85;;
37657;SDS011;23500;53.268;8.308;2023-07-13T05:49:42;25.65;;;9.07;;
37657;SDS011;23500;53.268;8.308;2023-07-13T05:52:08;26.20;;;9.05;;
37657;SDS011;23500;53.268;8.308;2023-07-13T05:54:33;22.30;;;8.20;;
37657;SDS011;23500;53.268;8.308;2023-07-13T05:56:59;28.92;;;8.95;;
37657;SDS011;23500;53.268;8.308;2023-07-13T05:59:25;25.95;;;8.43;;
37657;SDS011;23500;53.268;8.308;2023-07-13T06:01:51;25.08;;;8.45;;
37657;SDS011;23500;53.268;8.308;2023-07-13T06:04:17;28.02;;;9.13;;
37657;SDS011;23500;53.268;8.308;2023-07-13T06:06:44;24.20;;;8.88;;
37657;SDS011;23500;53.268;8.308;2023-07-13T06:09:09;23.60;;;8.48;;
37657;SDS011;23500;53.268;8.308;2023-07-13T06:11:35;25.13;;;8.73;;
37657;SDS011;23500;53.268;8.308;2023-07-13T06:14:01;25.38;;;8.70;;
37657;SDS011;23500;53.268;8.308;2023-07-13T06:16:26;30.05;;;9.63;;
37657;SDS011;23500;53.268;8.308;2023-07-13T06:18:52;23.67;;;8.43;;
37657;SDS011;23500;53.268;8.308;2023-07-13T06:21:19;24.70;;;9.00;;
37657;SDS011;23500;53.268;8.308;2023-07-13T06:23:46;23.33;;;8.43;;
37657;SDS011;23500;53.268;8.308;2023-07-13T06:26:13;22.58;;;8.18;;
37657;SDS011;23500;53.268;8.308;2023-07-13T06:28:39;22.40;;;7.72;;
37657;SDS011;23500;53.268;8.308;2023-07-13T06:31:08;19.75;;;8.20;;
37657;SDS011;23500;53.268;8.308;2023-07-13T06:33:36;19.00;;;7.45;;
37657;SDS011;23500;53.268;8.308;2023-07-13T06:36:02;22.00;;;7.72;;
37657;SDS011;23500;53.268;8.308;2023-07-13T06:38:30;23.52;;;7.82;;
37657;SDS011;23500;53.268;8.308;2023-07-13T06:40:56;25.45;;;8.63;;
37657;SDS011;23500;53.268;8.308;2023-07-13T06:43:21;26.48;;;8.38;;
37657;SDS011;23500;53.268;8.308;2023-07-13T06:45:49;24.35;;;8.48;;
37657;SDS011;23500;53.268;8.308;2023-07-13T06:48:16;23.35;;;7.82;;
37657;SDS011;23500;53.268;8.308;2023-07-13T06:50:42;16.10;;;6.55;;
37657;SDS011;23500;53.268;8.308;2023-07-13T06:53:09;20.50;;;7.13;;
37657;SDS011;23500;53.268;8.308;2023-07-13T06:55:35;17.67;;;6.65;;
37657;SDS011;23500;53.268;8.308;2023-07-13T06:58:01;17.25;;;6.82;;
37657;SDS011;23500;53.268;8.308;2023-07-13T07:00:27;18.05;;;7.32;;
37657;SDS011;23500;53.268;8.308;2023-07-13T07:02:52;18.05;;;6.55;;
37657;SDS011;23500;53.268;8.308;2023-07-13T07:05:18;14.27;;;6.78;;
37657;SDS011;23500;53.268;8.308;2023-07-13T07:07:46;13.95;;;6.10;;
37657;SDS011;23500;53.268;8.308;2023-07-13T07:10:16;12.27;;;5.82;;
37657;SDS011;23500;53.268;8.308;2023-07-13T07:12:41;14.00;;;5.82;;
37657;SDS011;23500;53.268;8.308;2023-07-13T07:15:07;13.38;;;5.60;;
37657;SDS011;23500;53.268;8.308;2023-07-13T07:17:33;11.35;;;5.20;;
37657;SDS011;23500;53.268;8.308;2023-07-13T07:19:59;13.13;;;5.28;;
37657;SDS011;23500;53.268;8.308;2023-07-13T07:22:25;11.10;;;4.80;;
37657;SDS011;23500;53.268;8.308;2023-07-13T07:24:52;12.57;;;5.25;;
37657;SDS011;23500;53.268;8.308;2023-07-13T07:27:18;12.05;;;4.95;;
37657;SDS011;23500;53.268;8.308;2023-07-13T07:29:44;12.27;;;5.00;;
37657;SDS011;23500;53.268;8.308;2023-07-13T07:32:10;10.95;;;4.57;;
37657;SDS011;23500;53.268;8.308;2023-07-13T07:34:36;9.98;;;3.75;;
37657;SDS011;23500;53.268;8.308;2023-07-13T07:37:02;11.10;;;4.65;;
37657;SDS011;23500;53.268;8.308;2023-07-13T07:39:28;11.10;;;4.43;;
37657;SDS011;23500;53.268;8.308;2023-07-13T07:41:54;6.88;;;4.05;;
37657;SDS011;23500;53.268;8.308;2023-07-13T07:44:20;8.63;;;4.38;;
37657;SDS011;23500;53.268;8.308;2023-07-13T07:46:45;9.48;;;4.28;;
37657;SDS011;23500;53.268;8.308;2023-07-13T07:49:11;9.88;;;4.57;;
37657;SDS011;23500;53.268;8.308;2023-07-13T07:51:37;8.35;;;3.35;;
37657;SDS011;23500;53.268;8.308;2023-07-13T07:54:03;8.57;;;4.28;;
37657;SDS011;23500;53.268;8.308;2023-07-13T07:56:30;8.82;;;3.85;;
37657;SDS011;23500;53.268;8.308;2023-07-13T07:58:56;8.65;;;4.03;;
37657;SDS011;23500;53.268;8.308;2023-07-13T08:01:22;8.55;;;4.20;;
37657;SDS011;23500;53.268;8.308;2023-07-13T08:03:47;9.07;;;4.20;;
37657;SDS011;23500;53.268;8.308;2023-07-13T08:06:13;7.88;;;3.58;;
37657;SDS011;23500;53.268;8.308;2023-07-13T08:08:39;9.23;;;4.35;;
37657;SDS011;23500;53.268;8.308;2023-07-13T08:11:05;7.55;;;3.50;;
37657;SDS011;23500;53.268;8.308;2023-07-13T08:13:32;7.50;;;4.18;;
37657;SDS011;23500;53.268;8.308;2023-07-13T08:15:58;5.57;;;3.40;;
37657;SDS011;23500;53.268;8.308;2023-07-13T08:18:24;5.68;;;3.00;;
37657;SDS011;23500;53.268;8.308;2023-07-13T08:20:50;7.88;;;3.65;;
37657;SDS011;23500;53.268;8.308;2023-07-13T08:23:15;7.65;;;3.63;;
37657;SDS011;23500;53.268;8.308;2023-07-13T08:25:41;7.57;;;3.90;;
37657;SDS011;23500;53.268;8.308;2023-07-13T08:28:07;7.75;;;3.83;;
37657;SDS011;23500;53.268;8.308;2023-07-13T08:30:33;7.75;;;3.42;;
37657;SDS011;23500;53.268;8.308;2023-07-13T08:33:01;5.85;;;3.30;;
37657;SDS011;23500;53.268;8.308;2023-07-13T08:35:27;6.78;;;3.60;;
37657;SDS011;23500;53.268;8.308;2023-07-13T08:37:53;6.35;;;3.28;;
37657;SDS011;23500;53.268;8.308;2023-07-13T08:40:19;7.30;;;4.03;;
37657;SDS011;23500;53.268;8.308;2023-07-13T08:42:54;6.60;;;3.50;;
37657;SDS011;23500;53.268;8.308;2023-07-13T08:45:46;6.93;;;3.20;;
37657;SDS011;23500;53.268;8.308;2023-07-13T08:48:52;6.22;;;3.20;;
37657;SDS011;23500;53.268;8.308;2023-07-13T08:56:48;6.95;;;3.40;;
37657;SDS011;23500;53.268;8.308;2023-07-13T08:59:19;6.30;;;3.47;;
37657;SDS011;23500;53.268;8.308;2023-07-13T09:02:14;4.55;;;2.85;;
37657;SDS011;23500;53.268;8.308;2023-07-13T09:04:50;5.53;;;3.50;;
37657;SDS011;23500;53.268;8.308;2023-07-13T09:15:27;5.05;;;2.95;;
37657;SDS011;23500;53.268;8.308;2023-07-13T09:17:56;5.97;;;3.30;;
37657;SDS011;23500;53.268;8.308;2023-07-13T09:20:28;6.03;;;3.22;;
37657;SDS011;23500;53.268;8.308;2023-07-13T09:22:59;3.63;;;3.08;;
37657;SDS011;23500;53.268;8.308;2023-07-13T09:25:35;5.88;;;3.30;;
37657;SDS011;23500;53.268;8.308;2023-07-13T09:28:05;4.53;;;3.13;;
37657;SDS011;23500;53.268;8.308;2023-07-13T09:30:43;5.90;;;3.10;;
37657;SDS011;23500;53.268;8.308;2023-07-13T09:33:30;5.72;;;3.20;;
37657;SDS011;23500;53.268;8.308;2023-07-13T09:35:59;4.65;;;2.85;;
37657;SDS011;23500;53.268;8.308;2023-07-13T09:38:28;4.93;;;3.40;;
37657;SDS011;23500;53.268;8.308;2023-07-13T09:41:04;5.72;;;3.55;;
37657;SDS011;23500;53.268;8.308;2023-07-13T09:46:58;4.40;;;3.20;;
37657;SDS011;23500;53.268;8.308;2023-07-13T09:49:25;5.28;;;2.97;;
37657;SDS011;23500;53.268;8.308;2023-07-13T09:52:10;4.95;;;3.28;;
37657;SDS011;23500;53.268;8.308;2023-07-13T09:54:39;3.92;;;3.05;;
37657;SDS011;23500;53.268;8.308;2023-07-13T09:57:12;4.30;;;3.05;;
37657;SDS011;23500;53.268;8.308;2023-07-13T09:59:41;4.75;;;3.10;;
37657;SDS011;23500;53.268;8.308;2023-07-13T10:05:03;4.60;;;2.80;;
37657;SDS011;23500;53.268;8.308;2023-07-13T10:07:41;5.13;;;3.08;;
37657;SDS011;23500;53.268;8.308;2023-07-13T10:10:16;4.50;;;2.80;;
37657;SDS011;23500;53.268;8.308;2023-07-13T10:12:43;4.57;;;3.15;;
37657;SDS011;23500;53.268;8.308;2023-07-13T10:15:13;4.20;;;2.90;;
37657;SDS011;23500;53.268;8.308;2023-07-13T10:17:42;5.43;;;2.83;;
37657;SDS011;23500;53.268;8.308;2023-07-13T10:20:09;4.60;;;2.95;;
37657;SDS011;23500;53.268;8.308;2023-07-13T10:25:26;4.93;;;3.00;;
37657;SDS011;23500;53.268;8.308;2023-07-13T10:28:03;4.25;;;2.90;;
37657;SDS011;23500;53.268;8.308;2023-07-13T10:30:39;4.38;;;3.30;;
37657;SDS011;23500;53.268;8.308;2023-07-13T10:33:09;4.95;;;3.47;;
37657;SDS011;23500;53.268;8.308;2023-07-13T10:35:37;6.38;;;3.40;;
37657;SDS011;23500;53.268;8.308;2023-07-13T10:38:10;4.05;;;2.83;;
37657;SDS011;23500;53.268;8.308;2023-07-13T10:43:14;3.42;;;2.90;;
37657;SDS011;23500;53.268;8.308;2023-07-13T10:45:45;4.35;;;3.25;;
37657;SDS011;23500;53.268;8.308;2023-07-13T10:48:15;4.05;;;3.05;;
37657;SDS011;23500;53.268;8.308;2023-07-13T10:50:43;4.40;;;2.85;;
37657;SDS011;23500;53.268;8.308;2023-07-13T10:53:30;3.70;;;2.90;;
37657;SDS011;23500;53.268;8.308;2023-07-13T10:56:05;4.05;;;3.00;;
37657;SDS011;23500;53.268;8.308;2023-07-13T10:59:01;3.35;;;2.95;;
37657;SDS011;23500;53.268;8.308;2023-07-13T11:01:40;3.60;;;2.90;;
37657;SDS011;23500;53.268;8.308;2023-07-13T11:04:13;3.53;;;3.20;;
37657;SDS011;23500;53.268;8.308;2023-07-13T11:06:40;3.38;;;2.92;;
37657;SDS011;23500;53.268;8.308;2023-07-13T11:12:06;4.28;;;2.85;;
37657;SDS011;23500;53.268;8.308;2023-07-13T11:17:36;3.35;;;2.80;;
37657;SDS011;23500;53.268;8.308;2023-07-13T11:22:46;2.80;;;2.60;;
37657;SDS011;23500;53.268;8.308;2023-07-13T11:25:31;2.88;;;2.67;;
37657;SDS011;23500;53.268;8.308;2023-07-13T11:30:46;3.50;;;2.88;;
37657;SDS011;23500;53.268;8.308;2023-07-13T11:33:27;3.25;;;2.78;;
37657;SDS011;23500;53.268;8.308;2023-07-13T11:36:06;3.05;;;2.75;;
37657;SDS011;23500;53.268;8.308;2023-07-13T11:38:40;3.10;;;2.80;;
37657;SDS011;23500;53.268;8.308;2023-07-13T11:41:14;3.10;;;2.50;;
37657;SDS011;23500;53.268;8.308;2023-07-13T11:43:42;3.80;;;2.88;;
37657;SDS011;23500;53.268;8.308;2023-07-13T11:46:20;3.03;;;2.70;;
37657;SDS011;23500;53.268;8.308;2023-07-13T11:48:48;2.28;;;2.08;;
37657;SDS011;23500;53.268;8.308;2023-07-13T11:51:26;2.88;;;2.60;;
37657;SDS011;23500;53.268;8.308;2023-07-13T11:53:56;3.65;;;2.40;;
37657;SDS011;23500;53.268;8.308;2023-07-13T11:56:24;2.72;;;2.53;;
37657;SDS011;23500;53.268;8.308;2023-07-13T11:58:51;3.10;;;2.60;;
37657;SDS011;23500;53.268;8.308;2023-07-13T12:01:20;3.97;;;2.70;;
37657;SDS011;23500;53.268;8.308;2023-07-13T12:03:49;3.25;;;2.53;;
37657;SDS011;23500;53.268;8.308;2023-07-13T12:08:55;2.90;;;2.60;;
37657;SDS011;23500;53.268;8.308;2023-07-13T12:11:26;3.40;;;2.50;;
37657;SDS011;23500;53.268;8.308;2023-07-13T12:13:52;2.60;;;2.40;;
37657;SDS011;23500;53.268;8.308;2023-07-13T12:16:29;3.35;;;2.70;;
37657;SDS011;23500;53.268;8.308;2023-07-13T12:18:58;2.75;;;2.50;;
37657;SDS011;23500;53.268;8.308;2023-07-13T12:21:30;3.38;;;2.35;;
37657;SDS011;23500;53.268;8.308;2023-07-13T12:24:03;2.63;;;2.30;;
37657;SDS011;23500;53.268;8.308;2023-07-13T12:26:30;2.40;;;2.20;;
37657;SDS011;23500;53.268;8.308;2023-07-13T12:28:59;3.60;;;2.55;;
37657;SDS011;23500;53.268;8.308;2023-07-13T12:34:00;2.53;;;2.33;;
37657;SDS011;23500;53.268;8.308;2023-07-13T12:36:29;2.50;;;2.13;;
37657;SDS011;23500;53.268;8.308;2023-07-13T12:38:59;2.45;;;2.25;;
37657;SDS011;23500;53.268;8.308;2023-07-13T12:41:30;2.67;;;2.40;;
37657;SDS011;23500;53.268;8.308;2023-07-13T12:43:57;2.83;;;2.53;;
37657;SDS011;23500;53.268;8.308;2023-07-13T12:46:24;2.47;;;2.30;;
37657;SDS011;23500;53.268;8.308;2023-07-13T12:48:54;3.33;;;2.25;;
37657;SDS011;23500;53.268;8.308;2023-07-13T12:51:22;4.13;;;2.33;;
37657;SDS011;23500;53.268;8.308;2023-07-13T12:53:50;2.28;;;2.10;;
37657;SDS011;23500;53.268;8.308;2023-07-13T12:56:23;2.38;;;2.13;;
37657;SDS011;23500;53.268;8.308;2023-07-13T12:58:57;2.75;;;2.30;;
37657;SDS011;23500;53.268;8.308;2023-07-13T13:01:29;2.45;;;2.25;;
37657;SDS011;23500;53.268;8.308;2023-07-13T13:04:01;2.53;;;2.33;;
37657;SDS011;23500;53.268;8.308;2023-07-13T13:06:32;2.38;;;2.17;;
37657;SDS011;23500;53.268;8.308;2023-07-13T13:08:58;2.40;;;2.20;;
37657;SDS011;23500;53.268;8.308;2023-07-13T13:11:25;2.65;;;2.17;;
37657;SDS011;23500;53.268;8.308;2023-07-13T13:13:52;2.30;;;2.10;;
37657;SDS011;23500;53.268;8.308;2023-07-13T13:18:55;3.03;;;1.75;;
37657;SDS011;23500;53.268;8.308;2023-07-13T13:21:25;3.05;;;1.73;;
37657;SDS011;23500;53.268;8.308;2023-07-13T13:23:51;2.35;;;1.77;;
37657;SDS011;23500;53.268;8.308;2023-07-13T13:26:18;1.75;;;1.55;;
37657;SDS011;23500;53.268;8.308;2023-07-13T13:28:46;2.05;;;1.83;;
37657;SDS011;23500;53.268;8.308;2023-07-13T13:31:15;3.40;;;2.00;;
37657;SDS011;23500;53.268;8.308;2023-07-13T13:33:41;3.10;;;2.10;;
37657;SDS011;23500;53.268;8.308;2023-07-13T13:36:16;3.78;;;1.98;;
37657;SDS011;23500;53.268;8.308;2023-07-13T13:38:44;2.15;;;1.88;;
37657;SDS011;23500;53.268;8.308;2023-07-13T13:41:11;2.75;;;1.75;;
37657;SDS011;23500;53.268;8.308;2023-07-13T13:43:39;2.92;;;1.75;;
37657;SDS011;23500;53.268;8.308;2023-07-13T13:46:11;2.20;;;1.90;;
37657;SDS011;23500;53.268;8.308;2023-07-13T13:48:43;2.03;;;1.85;;
37657;SDS011;23500;53.268;8.308;2023-07-13T13:51:14;2.20;;;2.00;;
37657;SDS011;23500;53.268;8.308;2023-07-13T13:53:41;2.25;;;1.83;;
37657;SDS011;23500;53.268;8.308;2023-07-13T13:56:08;2.90;;;2.10;;
37657;SDS011;23500;53.268;8.308;2023-07-13T13:58:33;2.40;;;2.20;;
37657;SDS011;23500;53.268;8.308;2023-07-13T14:00:59;2.10;;;1.90;;
37657;SDS011;23500;53.268;8.308;2023-07-13T14:03:25;2.97;;;2.13;;
37657;SDS011;23500;53.268;8.308;2023-07-13T14:05:53;3.10;;;2.20;;
37657;SDS011;23500;53.268;8.308;2023-07-13T14:08:22;1.98;;;1.88;;
37657;SDS011;23500;53.268;8.308;2023-07-13T14:10:49;2.80;;;2.05;;
37657;SDS011;23500;53.268;8.308;2023-07-13T14:13:20;2.63;;;2.30;;
37657;SDS011;23500;53.268;8.308;2023-07-13T14:15:52;2.20;;;2.00;;
37657;SDS011;23500;53.268;8.308;2023-07-13T14:18:20;2.60;;;2.10;;
37657;SDS011;23500;53.268;8.308;2023-07-13T14:20:47;4.25;;;2.08;;
37657;SDS011;23500;53.268;8.308;2023-07-13T14:23:14;2.38;;;1.77;;
37657;SDS011;23500;53.268;8.308;2023-07-13T14:25:40;2.85;;;1.92;;
37657;SDS011;23500;53.268;8.308;2023-07-13T14:28:25;1.75;;;1.65;;
37657;SDS011;23500;53.268;8.308;2023-07-13T14:30:52;2.10;;;1.90;;
37657;SDS011;23500;53.268;8.308;2023-07-13T14:33:19;2.42;;;1.98;;
37657;SDS011;23500;53.268;8.308;2023-07-13T14:35:45;2.03;;;1.90;;
37657;SDS011;23500;53.268;8.308;2023-07-13T14:38:12;2.80;;;1.75;;
37657;SDS011;23500;53.268;8.308;2023-07-13T14:40:40;1.80;;;1.70;;
37657;SDS011;23500;53.268;8.308;2023-07-13T14:43:10;2.70;;;1.75;;
37657;SDS011;23500;53.268;8.308;2023-07-13T14:45:38;2.60;;;1.90;;
37657;SDS011;23500;53.268;8.308;2023-07-13T14:48:20;2.25;;;1.70;;
37657;SDS011;23500;53.268;8.308;2023-07-13T14:50:57;2.33;;;1.63;;
37657;SDS011;23500;53.268;8.308;2023-07-13T14:53:26;2.60;;;1.85;;
37657;SDS011;23500;53.268;8.308;2023-07-13T14:55:55;2.95;;;1.88;;
37657;SDS011;23500;53.268;8.308;2023-07-13T14:58:21;1.60;;;1.50;;
37657;SDS011;23500;53.268;8.308;2023-07-13T15:00:46;1.75;;;1.65;;
37657;SDS011;23500;53.268;8.308;2023-07-13T15:03:19;2.30;;;1.52;;
37657;SDS011;23500;53.268;8.308;2023-07-13T15:05:49;3.42;;;1.83;;
37657;SDS011;23500;53.268;8.308;2023-07-13T15:08:16;3.38;;;1.70;;
37657;SDS011;23500;53.268;8.308;2023-07-13T15:10:41;3.67;;;2.00;;
37657;SDS011;23500;53.268;8.308;2023-07-13T15:13:15;2.53;;;1.90;;
37657;SDS011;23500;53.268;8.308;2023-07-13T15:15:46;3.33;;;1.83;;
37657;SDS011;23500;53.268;8.308;2023-07-13T15:18:17;3.03;;;1.63;;
37657;SDS011;23500;53.268;8.308;2023-07-13T15:20:49;2.35;;;1.80;;
37657;SDS011;23500;53.268;8.308;2023-07-13T15:23:17;2.35;;;1.70;;
37657;SDS011;23500;53.268;8.308;2023-07-13T15:25:43;1.85;;;1.70;;
37657;SDS011;23500;53.268;8.308;2023-07-13T15:28:10;2.92;;;1.60;;
37657;SDS011;23500;53.268;8.308;2023-07-13T15:30:39;3.50;;;1.80;;
37657;SDS011;23500;53.268;8.308;2023-07-13T15:33:14;3.15;;;1.90;;
37657;SDS011;23500;53.268;8.308;2023-07-13T15:35:42;3.00;;;2.00;;